ASN logo
ASN Wikibase Occurrence # 270109
Last updated: 15 January 2022
This information is added by users of ASN. Neither ASN nor the Flight Safety Foundation are responsible for the completeness or correctness of this information. If you feel this information is incomplete or incorrect, you can submit corrected information.

Date:01-DEC-2021
Time:02:32 LT
Type:Silhouette image of generic CRJ2 model; specific model in this crash may look slightly different
Canadair CRJ-200ER
Owner/operator:UVT Aero
Registration: VQ-BOQ
MSN: 7613
Fatalities:Fatalities: 0 / Occupants: 35
Other fatalities:0
Aircraft damage: None
Location:Chelyabinsk Airport (CEK/USCC) -   Russia
Phase: Landing
Nature:Passenger - Scheduled
Departure airport:Kazan International Airport (KZN/UWKD)
Destination airport:Chelyabinsk Airport (CEK/USCC)
Narrative:
UVT Aero flight RT567, a CRJ-200ER, suffered a runway excursion after landing at Chelyabinsk Airport. The aircraft came to a stop 20-25 meters from the side of the runway. There was no damage.

Weather about the incident time (2132Z, Nov.30):
USCC 302200Z 17007MPS 9999 -FZRA SCT030 M01/M04 Q1006 R09/350235 NOSIG RMK QFE734
USCC 302130Z 17008MPS 9999 -FZRA SCT030 M01/M04 Q1006 R09/350235 NOSIG RMK QFE734
USCC 302100Z 17008MPS 9999 -FZRA SCT030 M01/M04 Q1006 R09/790230 NOSIG RMK QFE734

Sources:

https://psut.sledcom.ru/news/item/1634282/



Images:


Photo: Ural Transport Prosecutor's Office

Revision history:

Date/timeContributorUpdates
01-Dec-2021 08:23 harro Added
01-Dec-2021 08:25 harro Updated [Location, Narrative]
01-Dec-2021 08:29 harro Updated [Narrative]

Corrections or additions? ... Edit this accident description